• Join FlightAware (Why Join?)
  • Login
  • US Flag 
03:36PM EST


 

Airport Tracker/Info


-or-


 

Live Flight TrackerFlight Track Log ✈ DAL2069 ✈ 20-Jul-2013 ✈ KATL - KMCO

Flight Track Log - Related Links

Times and Time Zones

All times are in EDT time to prevent confusion due to time zone crossing. See the DAL2069 flight status page for this flight to view local times or setup timezone preferences in your user account.

Time Position Orientation Groundspeed Altitude Reporting Facility
EDT Latitude Longitude Course Direction KTS MPH feet Rate Location/Type
10:24AM 33.6333 -84.4500 164° South 171 197 2,200  Level Atlanta TRACON
10:25AM 33.6333 -84.5333 270° West 255 293 4,000 2,580 Climbing Atlanta TRACON
10:26AM 33.6333 -84.6167 270° West 277 319 7,400 2,460 Climbing Atlanta TRACON
10:27AM 33.3606 -84.2610 168° South  Level FlightAware Approximate
10:28AM 33.2386 -84.2304 168° South  Level FlightAware Approximate
10:28AM 33.5544 -84.6994 221° Southwest 292 336 10,000  Level Atlanta Center
10:29AM 33.1166 -84.1999 168° South  Level FlightAware Approximate
10:29AM 33.4503 -84.6911 176° South 341 392 10,000  Level Atlanta Center
10:30AM 32.9949 -84.1705 164° South  Level FlightAware Approximate
10:30AM 33.3483 -84.6356 156° South 367 422 10,000  Level Atlanta Center
10:31AM 33.2756 -84.5358 131° Southeast 368 423 11,300 1,860 Climbing Atlanta Center
10:32AM 33.1986 -84.4361 133° Southeast 386 444 13,800 2,280 Climbing Atlanta Center
10:33AM 33.1197 -84.3364 133° Southeast 403 464 15,900 2,100 Climbing Atlanta Center
10:34AM 33.0406 -84.2322 132° Southeast 415 478 18,000 1,860 Climbing Atlanta Center
10:35AM 32.9508 -84.1600 146° Southeast 420 483 19,700 1,740 Climbing Atlanta Center
10:36AM 32.8342 -84.1106 160° South 429 494 21,500 1,500 Climbing Atlanta Center
10:37AM 32.7172 -84.0611 160° South 436 502 22,800 1,200 Climbing Atlanta Center
10:38AM 32.5983 -84.0117 161° South 450 518 24,000 1,140 Climbing Atlanta Center
10:39AM 32.4708 -83.9600 161° South 465 535 25,100 1,200 Climbing Atlanta Center
10:40AM 32.3392 -83.9036 160° South 465 535 26,400 1,380 Climbing Atlanta Center
10:41AM 32.2161 -83.8522 161° South 465 535 27,900 1,320 Climbing Atlanta Center
10:42AM 32.0908 -83.8036 162° South 465 535 29,100 1,200 Climbing Atlanta Center
10:43AM 31.9217 -83.7322 160° South 462 532 30,900 780 Climbing Jacksonville Center
10:44AM 31.7986 -83.6772 159° South 467 537 31,000  Climbing Jacksonville Center
10:45AM 31.6736 -83.6322 163° South 467 537 31,000  Level Jacksonville Center
10:46AM 31.5444 -83.5825 162° South 473 544 31,000  Level Jacksonville Center
10:47AM 31.4361 -83.5403 162° South 473 544 31,000  Level Jacksonville Center
10:48AM 31.3133 -83.4933 162° South 467 537 31,000  Level Jacksonville Center
10:49AM 31.1925 -83.4342 157° South 467 537 31,000  Level Jacksonville Center
10:50AM 31.0864 -83.3461 145° Southeast 467 537 31,000  Level Jacksonville Center
10:51AM 30.9781 -83.2586 145° Southeast 467 537 31,000  Level Jacksonville Center
10:52AM 30.8717 -83.1708 145° Southeast 472 543 31,000 -1,080 Level Jacksonville Center
10:53AM 30.7569 -83.0739 144° Southeast 467 537 28,900 -2,040 Descending Jacksonville Center
10:54AM 30.6486 -82.9867 145° Southeast 472 543 27,000 -960 Descending Jacksonville Center
10:55AM 30.5358 -82.8975 146° Southeast 484 557 27,000  Level Jacksonville Center
10:56AM 30.4231 -82.8083 146° Southeast 489 563 27,000 -60 Level Jacksonville Center
10:57AM 30.3103 -82.7194 146° Southeast 489 563 26,900 -660 Descending Jacksonville Center
10:58AM 30.1975 -82.6331 146° Southeast 489 563 25,700 -1,020 Descending Jacksonville Center
10:59AM 30.0864 -82.5469 146° Southeast 489 563 24,900 -360 Descending Jacksonville Center
11:00AM 29.9861 -82.4728 147° Southeast 483 556 25,000  Climbing Jacksonville Center
11:01AM 29.8628 -82.4111 157° South 483 556 25,000  Level Jacksonville Center
11:02AM 29.7414 -82.3519 157° South 478 550 25,000  Level Jacksonville Center
11:03AM 29.6200 -82.2928 157° South 478 550 25,000 -540 Level Jacksonville Center
11:04AM 29.5008 -82.2339 157° South 473 544 24,000 -1,800 Descending Jacksonville Center
11:05AM 29.3878 -82.1800 157° South 460 529 21,500 -2,580 Descending Jacksonville Center
11:06AM 29.2789 -82.1261 157° South 440 506 18,900 -2,700 Descending Jacksonville Center
11:07AM 29.1719 -82.0722 156° South 434 499 16,200 -2,700 Descending Jacksonville Center
11:08AM 29.0672 -82.0206 157° South 420 483 13,600 -2,400 Descending Jacksonville Center
11:09AM 28.9711 -81.9742 157° South 399 459 11,500 -1,320 Descending Jacksonville Center
11:10AM 28.8872 -81.9297 155° Southeast 362 417 11,000 -300 Descending Jacksonville Center
11:11AM 28.8500 -81.8500 118° Southeast 305 351 11,000 -180 Level Orlando TRACON
11:12AM 28.8167 -81.7667 115° Southeast 306 352 10,700 -1,020 Descending Orlando TRACON
11:13AM 28.8000 -81.6667 101° East 297 342 9,000 -1,560 Descending Orlando TRACON
11:14AM 28.7667 -81.5833 115° Southeast 288 331 7,500 -1,200 Descending Orlando TRACON
11:15AM 28.7500 -81.4833 101° East 253 291 6,600 -1,200 Descending Orlando TRACON
11:16AM 28.7333 -81.4333 111° Southeast 255 293 5,300 -1,440 Descending Orlando TRACON
11:17AM 28.7167 -81.3500 103° East 248 285 4,000 -1,140 Descending Orlando TRACON
11:18AM 28.6667 -81.3000 139° Southeast 208 239 3,000 -960 Descending Orlando TRACON